Pirai do Sul, Brazil
Current Conditions -  °F | °C
As of 1:00 PM on Saturday 25 Oct 2014 (Local Time) from SBBI Reporting Station
Scattered Clouds Scattered Clouds  
Wind Chill: 73°   Ceiling: Unl
Heat Index: 73°   Visibility: 6mi
Dew Point: 61°   Wind: 9mph
Humidity: 65%   Direction: 310°NW
Pressure: 30.06"   Gusts: NA
Location:  24.53°S, 49.95°W
Report Text: SBBI 251500Z 31008KT 9999 FEW025 SCT100 23/16 Q1018
Loading
Personal Weather Stations






























Interactive Weather Map
Tropical Storm Tracking
New forecast layout! Learn more

10-Day Weather Forecast

Advertisements
Track Severe Weather on mobile